Time;durP1;ratioP1;P1;durP2;ratioP2;P2;SDS_P1;SDS_P2;PMS_P1;PMS_P2;Temp;Humidity;BMP_temperature;BMP_pressure;BME280_temperature;BME280_humidity;BME280_pressure;Samples;Min_cycle;Max_cycle;Signal;HPM_P1;HPM_P2
2024/04/18 00:09:17;;;;;;;22.90;16.70;;;;;;;2.01;83.00;97764.73;435627;1254;97983;-42
2024/04/18 00:19:22;;;;;;;26.30;16.70;;;;;;;1.80;82.93;97756.36;435518;1253;111818;-43
2024/04/18 00:29:31;;;;;;;24.70;16.20;;;;;;;1.62;83.16;97762.61;435543;1253;109184;-42
2024/04/18 00:39:36;;;;;;;29.40;17.80;;;;;;;1.51;83.07;97774.92;435441;1252;99225;-40
2024/04/18 00:49:41;;;;;;;23.90;15.70;;;;;;;1.47;83.06;97775.90;435568;1253;108488;-40
2024/04/18 00:59:47;;;;;;;26.90;17.00;;;;;;;1.52;83.28;97784.90;435377;1254;98355;-41
2024/04/18 01:09:52;;;;;;;27.00;17.00;;;;;;;1.53;83.44;97794.65;435651;1253;112519;-41
2024/04/18 01:20:01;;;;;;;30.90;16.90;;;;;;;1.35;83.40;97791.46;436298;1253;108287;-41
2024/04/18 01:30:07;;;;;;;29.90;21.80;;;;;;;1.24;83.33;97789.95;435470;1250;99294;-40
2024/04/18 01:40:13;;;;;;;26.50;17.50;;;;;;;1.22;83.45;97801.40;435407;1250;111756;-41
2024/04/18 01:50:18;;;;;;;26.10;18.50;;;;;;;1.26;83.48;97799.10;435355;1251;107483;-41
2024/04/18 02:00:23;;;;;;;29.60;21.30;;;;;;;1.18;83.72;97808.06;435513;1253;99691;-40
2024/04/18 02:10:28;;;;;;;30.00;20.80;;;;;;;1.06;83.67;97817.30;435449;1253;111695;-42
2024/04/18 02:20:33;;;;;;;31.80;22.20;;;;;;;0.91;83.24;97821.14;435403;1250;108630;-40
2024/04/18 02:30:38;;;;;;;25.10;18.40;;;;;;;0.85;83.28;97826.54;435326;1250;99278;-42
2024/04/18 02:40:42;;;;;;;29.60;20.80;;;;;;;0.96;83.50;97835.89;435265;1249;108468;-40
2024/04/18 02:50:50;;;;;;;29.90;21.40;;;;;;;1.07;84.03;97836.72;435379;1253;99194;-41
2024/04/18 03:00:55;;;;;;;31.90;22.30;;;;;;;1.11;84.04;97834.95;435531;1253;111662;-40
2024/04/18 03:11:00;;;;;;;35.10;24.60;;;;;;;1.20;84.22;97833.27;435326;1254;99324;-41
2024/04/18 03:21:05;;;;;;;31.80;19.80;;;;;;;1.48;84.67;97828.08;435470;1250;97958;-40
2024/04/18 03:31:10;;;;;;;31.10;20.70;;;;;;;1.77;84.72;97823.15;435325;1251;112680;-41
2024/04/18 03:41:18;;;;;;;36.40;24.50;;;;;;;1.73;84.40;97828.02;435431;1252;108925;-42
2024/04/18 03:51:26;;;;;;;37.70;25.80;;;;;;;1.57;84.30;97831.83;435531;1253;98839;-41
2024/04/18 04:01:31;;;;;;;37.70;25.70;;;;;;;1.33;84.27;97842.33;435430;1251;111323;-40
2024/04/18 04:11:36;;;;;;;42.60;27.70;;;;;;;1.37;84.54;97847.33;435401;1252;99265;-41
2024/04/18 04:21:44;;;;;;;40.10;24.80;;;;;;;1.53;84.58;97854.41;435339;1250;99259;-42
2024/04/18 04:31:49;;;;;;;35.70;23.00;;;;;;;1.74;84.73;97860.31;435364;1253;112367;-41
2024/04/18 04:41:54;;;;;;;38.30;25.90;;;;;;;1.93;84.91;97873.20;435527;1252;108694;-40
2024/04/18 04:51:58;;;;;;;36.10;25.50;;;;;;;2.03;85.29;97882.48;435486;1253;99265;-41
2024/04/18 05:02:04;;;;;;;41.50;26.40;;;;;;;2.13;85.19;97883.21;435340;1250;99228;-40
2024/04/18 05:12:09;;;;;;;32.40;23.10;;;;;;;2.27;85.03;97888.48;435525;1251;108575;-41
2024/04/18 05:22:14;;;;;;;29.90;21.10;;;;;;;2.48;85.27;97895.06;435372;1261;99250;-39
2024/04/18 05:32:18;;;;;;;45.30;26.80;;;;;;;2.88;85.27;97899.02;435453;1253;108706;-40
2024/04/18 05:42:23;;;;;;;54.30;31.10;;;;;;;3.19;85.52;97904.40;435045;1253;506079;-39
2024/04/18 05:52:31;;;;;;;51.80;31.40;;;;;;;3.38;85.52;97919.48;435414;1253;110679;-41
2024/04/18 06:02:36;;;;;;;51.80;31.00;;;;;;;3.45;85.28;97927.33;435506;1253;107311;-41
2024/04/18 06:12:41;;;;;;;30.20;21.10;;;;;;;3.59;85.15;97919.67;435351;1252;98962;-41
2024/04/18 06:22:45;;;;;;;30.20;19.30;;;;;;;4.05;85.23;97925.36;435328;1250;108803;-40
2024/04/18 06:32:54;;;;;;;34.30;24.60;;;;;;;4.67;85.43;97933.03;435359;1253;98946;-41
2024/04/18 06:42:59;;;;;;;30.60;20.70;;;;;;;5.06;85.44;97934.56;435341;1250;112035;-40
2024/04/18 06:53:05;;;;;;;27.00;17.30;;;;;;;5.51;85.15;97938.69;435431;1263;108393;-40
2024/04/18 07:03:13;;;;;;;33.00;19.10;;;;;;;5.73;84.71;97945.85;435430;1250;99283;-40
2024/04/18 07:13:19;;;;;;;28.10;15.80;;;;;;;5.86;84.02;97955.98;435442;1252;108609;-41
2024/04/18 07:23:27;;;;;;;27.90;16.20;;;;;;;5.91;83.58;97965.69;435452;1253;99671;-40
2024/04/18 07:33:33;;;;;;;22.70;14.60;;;;;;;5.79;83.59;97977.07;435476;1253;112901;-40
2024/04/18 07:43:38;;;;;;;17.70;11.20;;;;;;;5.92;83.66;97978.65;435367;1251;108441;-41
2024/04/18 07:53:43;;;;;;;15.40;9.80;;;;;;;6.18;83.25;97984.91;435389;1253;98886;-41
2024/04/18 08:03:48;;;;;;;24.40;16.20;;;;;;;6.69;83.21;97992.67;435382;1254;107521;-40
2024/04/18 08:14:13;;;;;;;20.50;13.20;;;;;;;7.50;82.77;97990.20;435342;1253;99113;-41
2024/04/18 08:24:27;;;;;;;11.70;7.10;;;;;;;7.08;81.58;97995.59;435356;1253;112049;-39
2024/04/18 08:34:32;;;;;;;7.90;5.20;;;;;;;6.97;81.16;97995.67;435496;1253;108641;-39
2024/04/18 08:44:40;;;;;;;13.00;8.10;;;;;;;7.32;80.25;97989.85;435498;1254;99268;-41
2024/04/18 08:54:45;;;;;;;9.70;7.20;;;;;;;7.93;79.60;97991.52;435535;1253;98813;-40
2024/04/18 09:04:50;;;;;;;9.00;6.50;;;;;;;8.41;78.01;97991.29;435437;1260;108458;-41
2024/04/18 09:14:55;;;;;;;10.20;7.40;;;;;;;8.20;76.65;97994.23;435436;1253;118329;-40
2024/04/18 09:25:00;;;;;;;15.30;9.20;;;;;;;8.33;76.74;97995.90;435388;1254;108423;-41
2024/04/18 09:35:08;;;;;;;11.90;8.40;;;;;;;7.83;76.22;98003.33;435414;1251;99221;-41
2024/04/18 09:45:20;;;;;;;7.40;5.70;;;;;;;7.98;76.02;98001.30;435332;1254;112336;-40
2024/04/18 09:55:26;;;;;;;11.40;6.30;;;;;;;8.59;75.73;97996.67;435234;1264;108565;-39
2024/04/18 10:05:33;;;;;;;8.10;6.30;;;;;;;9.02;74.06;97986.48;435543;1254;98010;-41
2024/04/18 10:15:38;;;;;;;9.10;5.10;;;;;;;8.71;73.03;97988.54;435484;1253;109493;-41
2024/04/18 10:25:44;;;;;;;8.20;4.40;;;;;;;9.05;71.24;97980.83;435486;1254;99874;-41
2024/04/18 10:35:48;;;;;;;7.40;4.00;;;;;;;9.20;69.99;97988.00;435515;1250;112004;-40
2024/04/18 10:45:55;;;;;;;7.70;4.40;;;;;;;8.55;68.31;97999.26;435411;1263;108789;-40
2024/04/18 10:56:00;;;;;;;8.70;4.40;;;;;;;8.10;69.05;98004.11;435490;1260;98852;-41
2024/04/18 11:06:06;;;;;;;6.50;3.80;;;;;;;7.96;68.88;98006.31;435587;1263;112158;-39
2024/04/18 11:16:11;;;;;;;8.20;2.80;;;;;;;8.27;68.84;97999.54;435473;1254;108859;-40
2024/04/18 11:26:15;;;;;;;2.90;2.20;;;;;;;9.00;66.68;97994.39;435450;1253;99230;-40
2024/04/18 11:36:20;;;;;;;7.60;3.10;;;;;;;8.53;66.11;98006.55;435397;1255;97989;-40
2024/04/18 11:46:26;;;;;;;5.60;3.30;;;;;;;8.20;65.62;98010.17;435358;1253;109922;-41
2024/04/18 11:56:34;;;;;;;7.20;2.60;;;;;;;8.32;65.28;98012.20;435304;1253;99253;-40
2024/04/18 12:06:39;;;;;;;2.80;1.30;;;;;;;8.54;65.43;98005.85;435816;1253;112312;-41
2024/04/18 12:16:44;;;;;;;4.00;2.40;;;;;;;8.81;63.53;98000.17;435557;1251;108766;-41
2024/04/18 12:26:49;;;;;;;5.80;3.40;;;;;;;9.21;62.19;98000.58;435402;1253;99899;-41
2024/04/18 12:36:54;;;;;;;7.30;4.40;;;;;;;8.70;62.24;98018.65;435407;1251;112236;-40
2024/04/18 12:46:58;;;;;;;5.00;4.40;;;;;;;8.24;62.79;98029.40;435451;1251;109895;-41
2024/04/18 12:57:04;;;;;;;7.10;4.80;;;;;;;8.24;62.95;98032.38;435747;1254;99275;-40
2024/04/18 13:07:09;;;;;;;6.00;4.40;;;;;;;8.50;62.71;98023.67;435410;1251;112048;-40
2024/04/18 13:17:13;;;;;;;11.20;5.30;;;;;;;8.80;62.02;98026.32;435404;1253;108558;-39
2024/04/18 13:27:22;;;;;;;7.80;5.60;;;;;;;9.21;60.29;98016.15;435355;1254;99272;-41
2024/04/18 13:37:26;;;;;;;7.10;5.30;;;;;;;8.83;59.61;98038.10;435479;1254;112209;-42
2024/04/18 13:47:31;;;;;;;7.50;6.30;;;;;;;8.17;60.91;98047.14;435713;1251;107540;-41
2024/04/18 13:57:36;;;;;;;7.60;6.10;;;;;;;8.10;61.98;98045.22;435456;1254;98024;-40
2024/04/18 14:07:41;;;;;;;7.50;6.30;;;;;;;8.16;62.02;98040.21;435380;1250;112075;-41
2024/04/18 14:28:09;;;;;;;10.50;7.00;;;;;;;8.28;62.63;98050.19;435514;1253;99060;-40
2024/04/18 14:38:28;;;;;;;8.60;6.10;;;;;;;8.50;62.15;98047.77;435520;1253;112284;-39
2024/04/18 14:48:35;;;;;;;9.20;6.10;;;;;;;8.48;61.98;98049.08;435416;1251;108593;-39
2024/04/18 14:58:40;;;;;;;7.80;5.80;;;;;;;8.71;61.83;98049.09;435317;1253;99227;-42
2024/04/18 15:08:49;;;;;;;6.00;5.10;;;;;;;8.50;61.65;98061.86;435946;1249;112434;-39
2024/04/18 15:18:54;;;;;;;6.50;4.40;;;;;;;8.07;62.03;98064.18;435340;1253;108621;-41
2024/04/18 15:29:01;;;;;;;3.80;3.40;;;;;;;7.43;62.32;98064.34;435376;1249;98867;-41
2024/04/18 15:39:05;;;;;;;6.80;3.90;;;;;;;7.21;62.88;98069.30;435386;1249;109663;-40
2024/04/18 15:49:10;;;;;;;5.60;4.60;;;;;;;7.14;62.79;98064.95;435558;1250;98251;-40
2024/04/18 15:59:16;;;;;;;6.80;4.60;;;;;;;6.93;63.14;98074.89;435460;1253;112176;-40
2024/04/18 16:09:21;;;;;;;6.70;4.30;;;;;;;6.78;63.59;98083.69;435431;1252;99375;-40
2024/04/18 16:19:26;;;;;;;6.70;4.30;;;;;;;6.70;63.90;98089.68;435446;1250;97955;-41
2024/04/18 16:29:35;;;;;;;9.10;5.50;;;;;;;6.63;64.27;98097.79;435424;1250;112244;-41
2024/04/18 16:39:40;;;;;;;8.50;5.70;;;;;;;6.45;64.68;98106.29;435554;1250;108813;-42
2024/04/18 16:49:45;;;;;;;15.50;7.00;;;;;;;6.36;65.09;98104.39;435454;1251;99133;-40
2024/04/18 16:59:50;;;;;;;17.10;8.40;;;;;;;6.28;65.71;98117.50;435399;1253;108970;-41
2024/04/18 17:09:55;;;;;;;16.30;9.30;;;;;;;6.11;66.22;98132.45;435487;1252;98022;-40
2024/04/18 17:20:00;;;;;;;10.80;5.20;;;;;;;5.90;66.10;98143.77;435501;1250;111841;-41
2024/04/18 17:30:07;;;;;;;9.80;5.90;;;;;;;5.64;65.69;98157.77;435508;1253;107562;-40
2024/04/18 17:40:13;;;;;;;9.50;6.20;;;;;;;5.39;66.15;98171.27;435460;1250;98579;-39
2024/04/18 17:50:21;;;;;;;6.60;4.90;;;;;;;5.11;66.58;98176.11;435082;1249;385159;-41
2024/04/18 18:00:30;;;;;;;10.20;5.90;;;;;;;4.82;66.99;98185.96;435490;1250;99224;-41
2024/04/18 18:10:34;;;;;;;17.10;10.80;;;;;;;4.62;67.39;98185.17;435487;1253;111185;-41
2024/04/18 18:20:40;;;;;;;15.80;10.80;;;;;;;4.35;67.76;98193.38;435385;1253;107905;-40
2024/04/18 18:30:44;;;;;;;17.50;9.50;;;;;;;4.05;68.17;98202.35;435487;1251;100988;-41
2024/04/18 18:40:49;;;;;;;15.20;9.80;;;;;;;3.78;68.72;98214.23;435301;1250;107385;-41
2024/04/18 18:50:58;;;;;;;10.20;7.10;;;;;;;3.61;69.13;98220.89;435456;1253;100619;-40
2024/04/18 19:01:07;;;;;;;12.40;8.30;;;;;;;3.57;69.57;98226.52;435407;1253;113456;-40
2024/04/18 19:11:11;;;;;;;;;;;;;;;3.41;69.71;98233.48;435340;1253;108302;-41
2024/04/18 19:21:16;;;;;;;16.70;10.00;;;;;;;3.07;70.34;98229.84;435390;1253;99353;-41
2024/04/18 19:31:21;;;;;;;16.20;9.10;;;;;;;2.84;70.81;98237.93;435612;1252;108591;-39
2024/04/18 19:41:25;;;;;;;16.00;9.70;;;;;;;2.66;71.24;98238.34;435347;1252;99378;-39
2024/04/18 19:51:32;;;;;;;10.80;5.90;;;;;;;2.52;71.42;98235.70;435600;1253;113632;-40
2024/04/18 20:01:36;;;;;;;11.90;6.50;;;;;;;2.49;71.79;98237.30;435203;1252;107653;-41
2024/04/18 20:11:45;;;;;;;16.60;10.80;;;;;;;2.46;72.02;98236.02;435225;1249;101111;-40
2024/04/18 20:21:49;;;;;;;20.30;14.70;;;;;;;2.36;72.58;98238.96;435401;1253;108564;-41
2024/04/18 20:31:55;;;;;;;32.20;17.40;;;;;;;2.23;72.98;98241.38;435416;1253;99417;-39
2024/04/18 20:42:00;;;;;;;35.70;18.60;;;;;;;2.10;73.31;98244.85;435415;1253;113134;-40
2024/04/18 20:52:06;;;;;;;23.50;14.00;;;;;;;1.99;73.27;98250.31;435247;1250;108698;-40
2024/04/18 21:02:10;;;;;;;22.50;13.80;;;;;;;2.01;73.54;98245.00;435261;1250;99305;-41
2024/04/18 21:12:16;;;;;;;19.50;12.30;;;;;;;2.04;73.78;98243.77;435407;1253;108616;-40
2024/04/18 21:22:21;;;;;;;32.80;15.60;;;;;;;2.03;74.17;98249.86;435344;1253;100574;-41
2024/04/18 21:32:25;;;;;;;30.20;16.30;;;;;;;1.91;74.40;98257.44;435503;1253;113486;-41
2024/04/18 21:42:33;;;;;;;28.90;15.70;;;;;;;1.72;74.54;98261.68;435353;1252;108509;-40
2024/04/18 21:52:38;;;;;;;29.10;15.20;;;;;;;1.58;74.72;98259.24;435380;1253;99364;-41
2024/04/18 22:02:43;;;;;;;20.00;12.50;;;;;;;1.56;74.69;98253.48;435263;1252;108753;-41
2024/04/18 22:12:48;;;;;;;15.00;9.70;;;;;;;1.67;75.16;98253.86;435327;1253;99389;-41
2024/04/18 22:22:53;;;;;;;15.80;9.00;;;;;;;1.75;75.44;98255.85;435496;1252;113165;-39
2024/04/18 22:32:57;;;;;;;18.50;10.60;;;;;;;1.72;75.50;98251.97;435352;1253;108644;-40
2024/04/18 22:43:02;;;;;;;18.00;11.40;;;;;;;1.60;75.97;98253.05;435333;1253;100587;-41
2024/04/18 22:53:07;;;;;;;16.80;10.00;;;;;;;1.47;76.10;98252.70;435306;1253;108364;-40
2024/04/18 23:03:12;;;;;;;11.20;8.10;;;;;;;1.42;76.25;98251.45;435362;1250;100664;-40
2024/04/18 23:13:17;;;;;;;11.00;8.30;;;;;;;1.44;76.36;98244.41;435349;1250;113266;-40
2024/04/18 23:23:22;;;;;;;13.50;8.70;;;;;;;1.57;76.78;98241.46;435255;1251;108557;-41
2024/04/18 23:33:27;;;;;;;13.00;8.90;;;;;;;1.57;76.96;98239.27;435466;1253;99363;-42
2024/04/18 23:43:32;;;;;;;17.80;9.20;;;;;;;1.53;77.29;98236.86;435327;1252;108744;-41
2024/04/18 23:53:37;;;;;;;14.40;8.20;;;;;;;1.56;77.52;98231.32;435208;1253;99366;-40
